Time;durP1;ratioP1;P1;durP2;ratioP2;P2;SDS_P1;SDS_P2;PMS_P1;PMS_P2;Temp;Humidity;BMP_temperature;BMP_pressure;BME280_temperature;BME280_humidity;BME280_pressure;Samples;Min_cycle;Max_cycle;Signal;HPM_P1;HPM_P2
2023/06/04 00:01:07;;;;;;;12.00;5.20;;;;;;;10.78;59.35;100159.27;107444;1253;67780;-39
2023/06/04 00:03:43;;;;;;;13.70;5.40;;;;;;;10.75;58.27;100162.91;107418;1253;72725;-39
2023/06/04 00:06:11;;;;;;;11.40;5.10;;;;;;;10.71;57.34;100163.41;107405;1254;60524;-40
2023/06/04 00:08:39;;;;;;;11.00;5.30;;;;;;;10.70;56.68;100162.34;107288;1253;190139;-40
2023/06/04 00:12:19;;;;;;;11.80;5.30;;;;;;;10.72;56.11;100164.52;104124;1295;600490;-40
2023/06/04 00:14:46;;;;;;;12.60;5.10;;;;;;;10.71;55.87;100167.66;106631;1264;59394;-39
2023/06/04 00:17:14;;;;;;;15.00;5.70;;;;;;;10.71;55.72;100163.55;106687;1264;59126;-39
2023/06/04 00:19:42;;;;;;;13.90;6.00;;;;;;;10.71;55.67;100161.61;106681;1264;72302;-39
2023/06/04 00:22:09;;;;;;;12.50;5.60;;;;;;;10.70;56.01;100166.69;106770;1264;67573;-40
2023/06/04 00:24:37;;;;;;;13.10;5.70;;;;;;;10.68;56.14;100166.63;106726;1266;72633;-40
2023/06/04 00:27:08;;;;;;;10.90;5.30;;;;;;;10.65;56.14;100162.52;106667;1261;224284;-40
2023/06/04 00:29:36;;;;;;;12.10;5.10;;;;;;;10.62;56.33;100163.19;106942;1260;60043;-40
2023/06/04 00:32:04;;;;;;;13.10;5.20;;;;;;;10.60;56.63;100165.13;106860;1261;72254;-40
2023/06/04 00:34:32;;;;;;;11.70;5.40;;;;;;;10.58;56.97;100169.41;106912;1260;67627;-39
2023/06/04 00:37:01;;;;;;;12.90;5.20;;;;;;;10.55;57.18;100168.40;106835;1260;72673;-40
2023/06/04 00:39:29;;;;;;;15.30;5.20;;;;;;;10.52;57.01;100164.47;106866;1261;59611;-39
2023/06/04 00:41:57;;;;;;;11.20;4.90;;;;;;;10.47;57.22;100165.20;106852;1260;59657;-39
2023/06/04 00:44:25;;;;;;;14.30;5.30;;;;;;;10.44;57.58;100165.66;106870;1261;73074;-40
2023/06/04 00:46:53;;;;;;;14.00;4.90;;;;;;;10.42;57.87;100167.11;106890;1261;65793;-39
2023/06/04 00:49:21;;;;;;;10.60;5.30;;;;;;;10.39;58.00;100165.25;106839;1263;72249;-39
2023/06/04 00:51:50;;;;;;;16.60;5.20;;;;;;;10.36;58.31;100165.86;106752;1260;59411;-39
2023/06/04 00:54:18;;;;;;;11.70;5.30;;;;;;;10.33;58.40;100170.27;106803;1266;60052;-40
2023/06/04 00:56:47;;;;;;;11.90;5.00;;;;;;;10.30;58.57;100170.83;106877;1261;73045;-40
2023/06/04 00:59:15;;;;;;;13.00;5.40;;;;;;;10.26;58.76;100171.79;106930;1260;67761;-40
2023/06/04 01:01:52;;;;;;;12.80;4.80;;;;;;;10.23;59.21;100170.05;106883;1260;72734;-40
2023/06/04 01:04:33;;;;;;;11.10;4.90;;;;;;;10.21;59.39;100171.54;106776;1264;60074;-40
2023/06/04 01:07:02;;;;;;;7.70;4.80;;;;;;;10.19;59.03;100171.16;106924;1264;60502;-40
2023/06/04 01:09:30;;;;;;;11.00;4.70;;;;;;;10.17;59.15;100172.81;106790;1263;73501;-39
2023/06/04 01:11:58;;;;;;;11.10;4.40;;;;;;;10.15;59.35;100171.87;106837;1264;67600;-40
2023/06/04 01:14:26;;;;;;;11.70;4.90;;;;;;;10.13;59.41;100169.52;106893;1264;72754;-40
2023/06/04 01:17:02;;;;;;;10.80;4.90;;;;;;;10.11;59.42;100171.34;106880;1263;60128;-40
2023/06/04 01:19:37;;;;;;;14.10;5.10;;;;;;;10.08;59.37;100168.14;106847;1263;59554;-40
2023/06/04 01:22:20;;;;;;;13.30;4.80;;;;;;;10.06;59.47;100172.24;106891;1264;71881;-40
2023/06/04 01:24:52;;;;;;;11.30;4.60;;;;;;;10.03;59.73;100170.55;106812;1263;67895;-40
2023/06/04 01:27:20;;;;;;;8.10;4.30;;;;;;;9.99;59.66;100178.43;106827;1264;71423;-40
2023/06/04 01:29:49;;;;;;;8.00;4.10;;;;;;;9.96;59.39;100182.52;106886;1267;60055;-40
2023/06/04 01:32:17;;;;;;;7.60;4.00;;;;;;;9.94;59.00;100181.14;106821;1264;59867;-40
2023/06/04 01:34:46;;;;;;;9.10;4.40;;;;;;;9.91;58.78;100183.14;106848;1263;72046;-40
2023/06/04 01:37:13;;;;;;;7.60;3.50;;;;;;;9.89;58.74;100186.28;106939;1263;66714;-40
2023/06/04 01:39:41;;;;;;;7.20;3.70;;;;;;;9.86;58.84;100187.27;106838;1264;72732;-40
2023/06/04 01:42:10;;;;;;;8.30;4.00;;;;;;;9.84;59.23;100184.58;106931;1264;59742;-40
2023/06/04 01:44:37;;;;;;;8.60;4.30;;;;;;;9.82;59.68;100184.77;106818;1264;59448;-39
2023/06/04 01:47:05;;;;;;;8.60;4.40;;;;;;;9.81;60.07;100187.52;106824;1263;72134;-39
2023/06/04 01:49:32;;;;;;;7.70;4.00;;;;;;;9.80;60.33;100189.72;106868;1264;65458;-40
2023/06/04 01:52:00;;;;;;;8.90;3.80;;;;;;;9.80;60.47;100191.88;106848;1263;71410;-40
2023/06/04 01:54:29;;;;;;;4.20;2.60;;;;;;;9.82;60.44;100192.09;106804;1263;61722;-40
2023/06/04 01:56:57;;;;;;;3.90;2.10;;;;;;;9.86;60.08;100186.60;106846;1262;59493;-39
2023/06/04 01:59:25;;;;;;;6.60;2.20;;;;;;;9.89;59.85;100183.29;106845;1263;71192;-39
2023/06/04 02:01:53;;;;;;;6.80;2.60;;;;;;;9.91;59.49;100183.80;106954;1267;66338;-39
2023/06/04 02:04:21;;;;;;;5.30;2.30;;;;;;;9.93;59.51;100183.66;106866;1263;72693;-39
2023/06/04 02:06:49;;;;;;;4.90;2.50;;;;;;;9.95;59.52;100183.10;106860;1267;60115;-40
2023/06/04 02:09:17;;;;;;;4.00;2.00;;;;;;;9.96;59.47;100189.34;106847;1263;60028;-40
2023/06/04 02:11:45;;;;;;;7.30;2.60;;;;;;;9.94;59.39;100189.13;106850;1263;71790;-39
2023/06/04 02:14:12;;;;;;;4.00;2.30;;;;;;;9.93;59.35;100190.70;106849;1262;65505;-40
2023/06/04 02:16:41;;;;;;;10.10;2.50;;;;;;;9.92;58.95;100191.13;106844;1262;72762;-40
2023/06/04 02:19:08;;;;;;;4.00;1.90;;;;;;;9.90;58.51;100191.85;106869;1263;60146;-39
2023/06/04 02:21:36;;;;;;;4.00;1.90;;;;;;;9.89;58.55;100192.27;106858;1264;60199;-39
2023/06/04 02:24:04;;;;;;;6.10;2.40;;;;;;;9.89;58.69;100195.05;106860;1263;73070;-40
2023/06/04 02:26:32;;;;;;;4.70;2.20;;;;;;;9.89;58.86;100195.52;106874;1264;67713;-39
2023/06/04 02:29:00;;;;;;;4.80;2.10;;;;;;;9.90;59.19;100197.62;106858;1263;71068;-39
2023/06/04 02:31:27;;;;;;;4.40;2.50;;;;;;;9.90;59.28;100199.56;106849;1263;59615;-39
2023/06/04 02:33:55;;;;;;;7.10;2.50;;;;;;;9.90;59.12;100204.52;106866;1262;59595;-39
2023/06/04 02:36:23;;;;;;;6.40;2.40;;;;;;;9.89;59.02;100199.70;106922;1264;71810;-39
2023/06/04 02:38:51;;;;;;;5.90;2.20;;;;;;;9.89;59.23;100199.25;106858;1263;67608;-40
2023/06/04 02:41:18;;;;;;;7.70;2.40;;;;;;;9.89;59.79;100205.34;106844;1263;72710;-40
2023/06/04 02:43:46;;;;;;;3.70;2.20;;;;;;;9.86;60.91;100209.73;106862;1267;59772;-39
2023/06/04 02:46:14;;;;;;;4.50;2.10;;;;;;;9.84;61.83;100211.05;106849;1264;59531;-39
2023/06/04 02:48:42;;;;;;;6.50;2.30;;;;;;;9.89;62.44;100217.04;106870;1263;73055;-40
2023/06/04 02:51:11;;;;;;;5.70;2.50;;;;;;;9.98;62.78;100222.39;106864;1263;67599;-40
2023/06/04 02:53:39;;;;;;;6.90;2.40;;;;;;;10.06;63.06;100222.57;106848;1267;71391;-39
2023/06/04 02:56:07;;;;;;;5.90;2.50;;;;;;;10.12;63.32;100219.06;106857;1263;59704;-39
2023/06/04 02:58:39;;;;;;;9.20;2.90;;;;;;;10.17;63.50;100217.84;106836;1263;60210;-39
2023/06/04 03:01:06;;;;;;;12.80;3.40;;;;;;;10.22;63.71;100216.15;106822;1264;73139;-39
2023/06/04 03:03:35;;;;;;;28.00;7.10;;;;;;;10.27;63.92;100213.95;106969;1263;67620;-40
2023/06/04 03:06:04;;;;;;;21.70;5.70;;;;;;;10.34;64.53;100219.39;106827;1263;72703;-39
2023/06/04 03:08:32;;;;;;;19.90;5.50;;;;;;;10.41;64.77;100218.51;106818;1263;60069;-39
2023/06/04 03:11:00;;;;;;;27.20;5.30;;;;;;;10.47;64.68;100224.15;106796;1262;60067;-39
2023/06/04 03:13:27;;;;;;;7.60;2.60;;;;;;;10.57;64.13;100225.94;106848;1263;73044;-39
2023/06/04 03:15:55;;;;;;;6.20;2.30;;;;;;;10.71;62.65;100231.34;106892;1262;66323;-39
2023/06/04 03:18:23;;;;;;;4.00;2.30;;;;;;;10.77;60.50;100230.17;106865;1263;72674;-39
2023/06/04 03:20:50;;;;;;;6.40;2.50;;;;;;;10.84;59.84;100230.45;106801;1264;60301;-39
2023/06/04 03:23:19;;;;;;;4.60;2.10;;;;;;;10.91;58.94;100230.45;106854;1264;59247;-39
2023/06/04 03:25:47;;;;;;;6.50;2.60;;;;;;;10.99;58.59;100233.38;106860;1263;73091;-39
2023/06/04 03:28:15;;;;;;;5.20;2.20;;;;;;;11.06;58.34;100233.01;106877;1263;66286;-39
2023/06/04 03:30:43;;;;;;;6.00;2.30;;;;;;;11.14;57.92;100230.91;106824;1263;71378;-38
2023/06/04 03:33:11;;;;;;;3.40;2.30;;;;;;;11.21;57.65;100229.02;106866;1263;59359;-39
2023/06/04 03:35:41;;;;;;;6.40;2.50;;;;;;;11.27;57.48;100226.59;106861;1263;59481;-39
2023/06/04 03:38:09;;;;;;;8.70;2.60;;;;;;;11.34;57.57;100224.23;106808;1263;73056;-39
2023/06/04 03:40:38;;;;;;;9.20;2.50;;;;;;;11.39;57.33;100224.44;106847;1263;65307;-39
2023/06/04 03:43:07;;;;;;;4.30;2.50;;;;;;;11.44;57.19;100227.77;106827;1264;71451;-39
2023/06/04 03:45:34;;;;;;;4.70;2.30;;;;;;;11.48;57.35;100232.09;106847;1263;60068;-39
2023/06/04 03:48:03;;;;;;;4.90;2.30;;;;;;;11.52;57.21;100234.45;106814;1269;59580;-39
2023/06/04 03:50:31;;;;;;;6.40;2.60;;;;;;;11.56;57.93;100235.66;106851;1262;71780;-39
2023/06/04 03:52:59;;;;;;;3.70;2.30;;;;;;;11.60;58.02;100236.08;107079;1259;66339;-39
2023/06/04 03:55:31;;;;;;;6.70;2.90;;;;;;;11.65;58.41;100235.21;107055;1259;71420;-39
2023/06/04 03:58:00;;;;;;;7.60;2.40;;;;;;;11.72;58.87;100235.45;107077;1259;60364;-39
2023/06/04 04:00:28;;;;;;;5.70;2.30;;;;;;;11.80;59.62;100238.84;107156;1259;59481;-39
2023/06/04 04:02:56;;;;;;;3.70;2.00;;;;;;;11.88;59.56;100237.66;107063;1259;73106;-39
2023/06/04 04:05:29;;;;;;;6.00;2.70;;;;;;;11.94;58.85;100240.25;107059;1259;66336;-39
2023/06/04 04:07:56;;;;;;;4.90;2.30;;;;;;;12.01;58.31;100241.35;107060;1259;72764;-39
2023/06/04 04:10:27;;;;;;;3.00;2.00;;;;;;;12.07;58.67;100239.96;107054;1260;59650;-39
2023/06/04 04:12:57;;;;;;;3.70;2.00;;;;;;;12.12;57.78;100235.21;107048;1259;59762;-39
2023/06/04 04:15:26;;;;;;;3.30;1.80;;;;;;;12.19;57.30;100235.17;107059;1259;73095;-39
2023/06/04 04:17:55;;;;;;;6.10;1.80;;;;;;;12.28;56.76;100237.56;107074;1260;66286;-39
2023/06/04 04:20:22;;;;;;;3.70;2.00;;;;;;;12.37;56.04;100238.02;107025;1261;71483;-39
2023/06/04 04:22:54;;;;;;;3.40;2.00;;;;;;;12.46;55.39;100242.08;107053;1260;60450;-39
2023/06/04 04:25:23;;;;;;;4.60;1.90;;;;;;;12.54;54.62;100241.10;107068;1259;60139;-39
2023/06/04 04:27:51;;;;;;;5.20;1.70;;;;;;;12.63;54.05;100241.48;107097;1260;72560;-39
2023/06/04 04:30:19;;;;;;;4.70;2.20;;;;;;;12.73;53.28;100236.98;107041;1260;66655;-39
2023/06/04 04:32:48;;;;;;;;;;;;;;;12.81;51.84;100238.04;107025;1260;72695;-39
2023/06/04 04:35:23;;;;;;;5.00;1.60;;;;;;;12.84;52.05;100235.55;107037;1260;60424;-39
2023/06/04 04:37:53;;;;;;;4.10;1.60;;;;;;;12.92;52.40;100240.86;107049;1260;59208;-39
2023/06/04 04:40:24;;;;;;;4.70;1.40;;;;;;;13.06;51.57;100246.48;107043;1257;72577;-39
2023/06/04 04:42:52;;;;;;;5.70;1.50;;;;;;;13.17;50.23;100245.76;107094;1257;66667;-39
2023/06/04 04:45:20;;;;;;;2.40;1.40;;;;;;;13.28;49.55;100242.80;107064;1257;71399;-39
2023/06/04 04:47:52;;;;;;;2.80;1.40;;;;;;;13.35;49.08;100247.33;107116;1257;60338;-39
2023/06/04 04:50:21;;;;;;;4.00;1.30;;;;;;;13.42;48.07;100246.23;107273;1257;59808;-40
2023/06/04 04:52:49;;;;;;;4.10;1.30;;;;;;;13.49;47.85;100247.63;107151;1259;72578;-40
2023/06/04 04:55:16;;;;;;;5.30;1.20;;;;;;;13.57;48.05;100244.83;107039;1257;66797;-39
2023/06/04 04:57:45;;;;;;;3.10;1.40;;;;;;;13.66;46.81;100250.47;107126;1257;71370;-40
2023/06/04 05:00:15;;;;;;;2.70;1.50;;;;;;;13.73;45.87;100246.23;107234;1257;60357;-40
2023/06/04 05:02:43;;;;;;;1.40;0.90;;;;;;;13.78;45.84;100246.11;107097;1257;59280;-40
2023/06/04 05:05:11;;;;;;;3.40;1.40;;;;;;;13.82;46.67;100244.33;107177;1257;72572;-40
2023/06/04 05:07:38;;;;;;;3.30;1.70;;;;;;;13.90;47.11;100238.55;107009;1257;66642;-40
2023/06/04 05:10:08;;;;;;;2.60;1.30;;;;;;;13.99;47.31;100242.25;107202;1260;71407;-40
2023/06/04 05:12:35;;;;;;;3.80;1.60;;;;;;;14.08;45.30;100245.31;107091;1260;60489;-40
2023/06/04 05:15:04;;;;;;;6.20;1.30;;;;;;;14.15;44.70;100244.42;107063;1257;59635;-40
2023/06/04 05:17:32;;;;;;;2.20;1.30;;;;;;;14.23;42.53;100245.04;107086;1257;73847;-40
2023/06/04 05:20:04;;;;;;;2.70;1.20;;;;;;;14.28;42.06;100242.70;107159;1262;67538;-40
2023/06/04 05:22:33;;;;;;;3.70;1.50;;;;;;;14.31;41.98;100250.56;107090;1257;72714;-39
2023/06/04 05:25:01;;;;;;;4.20;1.40;;;;;;;14.35;41.25;100250.33;107136;1257;60248;-40
2023/06/04 05:27:28;;;;;;;3.10;1.20;;;;;;;14.39;41.61;100248.93;107132;1257;60371;-40
2023/06/04 05:29:56;;;;;;;2.80;1.40;;;;;;;14.45;42.45;100252.92;107182;1256;73854;-40
2023/06/04 05:32:28;;;;;;;4.50;1.30;;;;;;;14.53;41.95;100249.94;107107;1257;67574;-40
2023/06/04 05:34:57;;;;;;;3.00;1.20;;;;;;;14.60;41.45;100248.44;107061;1257;72683;-40
2023/06/04 05:37:29;;;;;;;2.60;1.30;;;;;;;14.67;40.88;100247.15;107103;1259;59253;-40
2023/06/04 05:39:57;;;;;;;2.60;1.20;;;;;;;14.75;40.56;100250.78;107139;1257;59674;-40
2023/06/04 05:42:24;;;;;;;2.80;1.30;;;;;;;14.83;40.22;100252.09;107102;1262;73856;-40
2023/06/04 05:44:52;;;;;;;2.80;1.40;;;;;;;14.91;40.14;100250.34;107156;1257;66292;-40
2023/06/04 05:47:20;;;;;;;3.40;1.20;;;;;;;14.97;40.00;100254.10;107111;1260;72680;-40
2023/06/04 05:49:49;;;;;;;3.00;1.20;;;;;;;15.03;39.96;100253.41;107181;1257;59251;-40
2023/06/04 05:52:16;;;;;;;2.60;1.30;;;;;;;15.14;39.74;100257.56;107045;1257;60067;-40
2023/06/04 05:54:44;;;;;;;3.10;1.10;;;;;;;15.28;39.93;100256.89;107102;1257;73844;-40
2023/06/04 05:57:12;;;;;;;5.50;1.40;;;;;;;15.39;39.30;100255.02;107054;1257;66622;-40
2023/06/04 05:59:40;;;;;;;2.10;1.20;;;;;;;15.46;38.56;100254.96;107039;1259;72670;-40
2023/06/04 06:02:10;;;;;;;;;;;;;;;15.53;38.39;100254.70;107123;1257;60137;-40
2023/06/04 06:04:38;;;;;;;2.60;1.40;;;;;;;15.55;38.87;100255.41;107137;1262;60415;-40
2023/06/04 06:07:06;;;;;;;3.40;1.30;;;;;;;15.58;39.05;100251.40;107135;1257;73895;-40
2023/06/04 06:09:35;;;;;;;3.30;1.10;;;;;;;15.65;37.87;100254.08;107058;1256;66626;-40
2023/06/04 06:12:03;;;;;;;2.90;1.30;;;;;;;15.68;38.18;100253.71;107112;1260;71418;-40
2023/06/04 06:14:31;;;;;;;3.10;1.00;;;;;;;15.70;38.03;100261.63;107104;1257;59748;-40
2023/06/04 06:17:02;;;;;;;3.70;1.00;;;;;;;15.73;38.09;100263.77;107207;1257;59585;-40
2023/06/04 06:19:30;;;;;;;1.80;1.20;;;;;;;15.77;38.21;100262.58;107036;1263;72669;-40
2023/06/04 06:21:58;;;;;;;2.50;1.30;;;;;;;15.80;37.27;100259.97;107131;1257;66517;-40
2023/06/04 06:24:27;;;;;;;2.40;1.10;;;;;;;15.84;37.41;100260.00;107032;1260;71097;-40
2023/06/04 06:26:54;;;;;;;3.50;1.20;;;;;;;15.89;37.38;100261.39;107060;1260;60512;-40
2023/06/04 06:29:22;;;;;;;2.80;1.10;;;;;;;15.99;37.51;100260.88;107123;1258;60275;-40
2023/06/04 06:31:51;;;;;;;2.30;0.90;;;;;;;16.08;36.22;100254.59;107251;1257;73879;-40
2023/06/04 06:34:19;;;;;;;2.00;0.80;;;;;;;16.14;36.24;100255.52;107103;1257;67901;-40
2023/06/04 06:36:47;;;;;;;2.50;1.00;;;;;;;16.23;37.12;100256.37;107074;1257;72668;-40
2023/06/04 06:39:15;;;;;;;7.00;1.00;;;;;;;16.37;36.56;100256.52;107083;1260;60421;-40
2023/06/04 06:41:43;;;;;;;1.80;1.00;;;;;;;16.49;35.57;100253.11;107102;1257;60392;-39
2023/06/04 06:44:14;;;;;;;2.10;1.10;;;;;;;16.58;35.12;100246.72;107209;1257;72568;-39
2023/06/04 06:46:42;;;;;;;1.80;0.90;;;;;;;16.65;35.54;100251.80;107106;1259;67625;-39
2023/06/04 06:49:10;;;;;;;1.50;1.00;;;;;;;16.74;36.39;100251.41;107098;1257;72820;-39
2023/06/04 06:51:37;;;;;;;1.40;0.90;;;;;;;16.84;35.78;100257.51;107112;1259;60116;-39
2023/06/04 06:54:05;;;;;;;1.90;1.00;;;;;;;16.92;35.26;100259.05;107122;1257;60285;-39
2023/06/04 06:56:33;;;;;;;2.80;0.90;;;;;;;17.01;35.65;100259.74;107064;1257;72295;-39
2023/06/04 06:59:01;;;;;;;0.90;0.70;;;;;;;17.12;34.98;100256.47;107020;1257;67566;-39
2023/06/04 07:01:28;;;;;;;2.60;1.00;;;;;;;17.22;35.07;100259.19;107057;1259;72677;-39
2023/06/04 07:03:56;;;;;;;1.50;0.90;;;;;;;17.28;34.32;100260.95;107114;1257;60425;-39
2023/06/04 07:06:24;;;;;;;1.80;0.90;;;;;;;17.31;34.08;100261.67;107083;1257;60650;-40
2023/06/04 07:08:52;;;;;;;2.20;1.10;;;;;;;17.36;33.72;100260.20;107136;1257;72577;-40
2023/06/04 07:11:20;;;;;;;3.20;1.40;;;;;;;17.37;33.05;100263.51;107116;1257;67844;-40
2023/06/04 07:13:47;;;;;;;4.90;0.90;;;;;;;17.35;33.46;100261.54;107080;1262;71494;-40
2023/06/04 07:16:15;;;;;;;1.80;1.10;;;;;;;17.39;34.11;100264.93;107120;1257;59646;-40
2023/06/04 07:18:43;;;;;;;1.20;1.00;;;;;;;17.49;33.69;100270.46;107120;1257;60833;-40
2023/06/04 07:21:10;;;;;;;2.10;1.00;;;;;;;17.56;32.89;100265.80;107120;1257;73988;-40
2023/06/04 07:23:38;;;;;;;1.20;0.80;;;;;;;17.62;33.02;100267.11;107209;1258;66889;-40
2023/06/04 07:26:06;;;;;;;3.30;1.00;;;;;;;17.71;33.19;100264.95;107113;1257;72709;-40
2023/06/04 07:28:34;;;;;;;1.60;0.80;;;;;;;17.84;33.28;100266.42;107124;1258;60485;-39
2023/06/04 07:31:02;;;;;;;3.70;1.00;;;;;;;17.96;33.46;100264.66;107166;1258;60646;-39
2023/06/04 07:33:29;;;;;;;2.80;1.00;;;;;;;18.05;32.48;100265.40;107146;1257;73868;-40
2023/06/04 07:35:57;;;;;;;1.50;0.90;;;;;;;18.10;31.89;100264.16;107150;1257;67914;-40
2023/06/04 07:38:25;;;;;;;2.70;1.20;;;;;;;18.13;32.74;100261.66;107062;1258;72706;-40
2023/06/04 07:40:53;;;;;;;2.10;1.00;;;;;;;18.22;32.72;100260.66;107130;1259;59330;-39
2023/06/04 07:43:21;;;;;;;2.80;0.70;;;;;;;18.27;31.79;100255.11;107142;1258;60315;-40
2023/06/04 07:45:48;;;;;;;3.70;1.10;;;;;;;18.19;31.48;100259.64;107158;1257;72653;-40
2023/06/04 07:48:16;;;;;;;1.50;0.80;;;;;;;18.14;31.45;100262.45;107129;1258;67886;-39
2023/06/04 07:50:43;;;;;;;3.10;1.10;;;;;;;18.14;31.69;100263.70;107091;1258;72728;-40
2023/06/04 07:53:11;;;;;;;2.10;0.90;;;;;;;18.18;31.33;100260.11;107110;1258;60433;-40
2023/06/04 07:55:39;;;;;;;1.00;0.90;;;;;;;18.20;31.99;100261.05;107137;1257;60488;-39
2023/06/04 07:58:06;;;;;;;2.00;0.80;;;;;;;18.22;31.55;100254.94;107092;1258;72578;-40
2023/06/04 08:00:34;;;;;;;3.10;0.80;;;;;;;18.30;31.74;100254.24;107074;1261;67914;-39
2023/06/04 08:03:02;;;;;;;2.30;0.90;;;;;;;18.30;30.89;100257.77;107120;1259;71058;-40
2023/06/04 08:05:30;;;;;;;1.90;0.80;;;;;;;18.26;31.33;100253.13;107078;1259;60390;-39
2023/06/04 08:07:57;;;;;;;2.60;1.20;;;;;;;18.33;31.15;100255.58;107123;1259;60457;-39
2023/06/04 08:10:25;;;;;;;1.40;0.90;;;;;;;18.42;31.88;100248.92;107108;1257;73881;-40
2023/06/04 08:12:53;;;;;;;2.20;1.00;;;;;;;18.52;31.85;100251.48;107141;1257;65935;-40
2023/06/04 08:15:20;;;;;;;3.10;0.90;;;;;;;18.60;30.85;100255.73;107104;1260;71794;-40
2023/06/04 08:17:48;;;;;;;2.10;1.20;;;;;;;18.63;30.59;100260.60;107124;1257;60378;-40
2023/06/04 08:20:15;;;;;;;1.70;1.10;;;;;;;18.64;29.98;100256.59;107127;1260;60467;-40
2023/06/04 08:22:43;;;;;;;2.10;1.10;;;;;;;18.63;30.87;100255.25;107079;1258;72609;-40
2023/06/04 08:25:11;;;;;;;1.20;0.90;;;;;;;18.67;31.23;100255.73;107107;1258;66292;-40
2023/06/04 08:27:38;;;;;;;2.60;1.00;;;;;;;18.71;31.15;100251.49;107086;1260;71424;-39
2023/06/04 08:30:07;;;;;;;3.20;1.10;;;;;;;18.72;30.52;100249.21;107088;1257;60539;-40
2023/06/04 08:32:35;;;;;;;4.20;1.10;;;;;;;18.70;30.54;100251.25;107160;1257;60431;-39
2023/06/04 08:35:03;;;;;;;1.80;0.90;;;;;;;18.68;30.38;100248.59;107140;1257;73916;-40
2023/06/04 08:37:31;;;;;;;4.20;1.10;;;;;;;18.70;30.70;100252.36;107167;1257;66609;-39
2023/06/04 08:39:58;;;;;;;2.70;1.00;;;;;;;18.74;30.77;100254.16;107220;1258;71302;-40
2023/06/04 08:42:29;;;;;;;1.50;0.90;;;;;;;18.86;31.10;100253.77;107188;1259;60457;-40
2023/06/04 08:44:57;;;;;;;1.90;0.80;;;;;;;18.99;30.06;100251.09;107141;1258;60473;-40
2023/06/04 08:47:28;;;;;;;2.30;1.10;;;;;;;19.07;31.09;100246.13;107205;1257;72625;-39
2023/06/04 08:50:00;;;;;;;9.30;0.90;;;;;;;19.21;30.52;100249.56;107092;1260;67875;-40
2023/06/04 08:52:27;;;;;;;2.40;0.70;;;;;;;19.36;30.72;100245.20;107132;1260;72672;-40
2023/06/04 08:54:56;;;;;;;0.80;0.70;;;;;;;19.55;29.39;100244.48;107120;1260;60093;-40
2023/06/04 08:57:24;;;;;;;1.30;0.90;;;;;;;19.74;29.77;100242.35;107124;1258;59587;-40
2023/06/04 08:59:51;;;;;;;1.90;0.80;;;;;;;19.91;30.16;100243.61;107093;1262;73875;-40
2023/06/04 09:02:19;;;;;;;2.00;1.10;;;;;;;20.07;29.02;100245.17;107136;1257;67576;-40
2023/06/04 09:04:47;;;;;;;0.80;0.70;;;;;;;20.15;28.72;100248.44;107120;1258;72661;-40
2023/06/04 09:07:15;;;;;;;1.80;0.80;;;;;;;20.19;28.02;100242.20;107056;1259;59180;-40
2023/06/04 09:09:45;;;;;;;3.30;0.80;;;;;;;20.17;28.08;100236.78;107128;1258;60044;-39
2023/06/04 09:12:25;;;;;;;2.60;0.90;;;;;;;20.21;28.53;100234.16;107066;1258;73850;-40
2023/06/04 09:14:52;;;;;;;2.10;0.80;;;;;;;20.33;28.51;100233.31;107147;1262;66623;-40
2023/06/04 09:17:24;;;;;;;3.60;1.00;;;;;;;20.43;28.16;100229.24;107072;1260;72708;-40
2023/06/04 09:19:52;;;;;;;5.00;1.30;;;;;;;20.54;27.55;100226.65;107140;1262;60430;-40
2023/06/04 09:22:19;;;;;;;3.00;1.00;;;;;;;20.65;27.74;100221.76;107102;1257;60313;-40
2023/06/04 09:24:50;;;;;;;2.40;1.00;;;;;;;20.73;27.79;100219.71;107223;1258;73930;-40
2023/06/04 09:27:19;;;;;;;2.10;0.90;;;;;;;20.83;27.88;100215.29;107084;1260;67605;-40
2023/06/04 09:29:51;;;;;;;3.00;1.00;;;;;;;20.94;27.46;100216.84;107140;1261;72688;-40
2023/06/04 09:32:28;;;;;;;2.80;1.00;;;;;;;21.01;27.21;100222.91;107101;1260;60434;-40
2023/06/04 09:35:12;;;;;;;3.00;0.80;;;;;;;21.05;27.53;100211.52;107118;1257;60402;-40
2023/06/04 09:37:40;;;;;;;3.50;1.00;;;;;;;21.08;27.25;100214.73;107095;1258;73132;-40
2023/06/04 09:40:09;;;;;;;1.70;0.90;;;;;;;21.08;27.70;100215.75;107278;1257;67888;-40
2023/06/04 09:42:49;;;;;;;2.90;1.00;;;;;;;21.12;26.67;100215.17;107100;1260;72699;-40
2023/06/04 09:45:46;;;;;;;1.70;0.80;;;;;;;21.13;27.11;100212.33;107066;1260;60424;-41
2023/06/04 09:48:23;;;;;;;1.50;0.90;;;;;;;21.15;26.83;100210.67;107008;1260;60360;-41
2023/06/04 09:50:50;;;;;;;2.60;0.80;;;;;;;21.23;27.21;100212.86;107067;1258;73902;-40
2023/06/04 09:53:22;;;;;;;3.10;0.70;;;;;;;21.22;27.06;100208.78;107075;1260;67569;-40
2023/06/04 09:55:58;;;;;;;1.40;1.00;;;;;;;21.24;28.03;100207.03;107108;1258;71744;-41
2023/06/04 09:58:26;;;;;;;2.80;0.80;;;;;;;21.30;27.27;100206.57;107097;1260;60135;-40
2023/06/04 10:00:54;;;;;;;4.40;0.90;;;;;;;21.23;26.99;100203.96;107169;1258;60286;-40
2023/06/04 10:03:23;;;;;;;1.80;0.90;;;;;;;21.08;26.98;100206.86;107048;1258;72589;-40
2023/06/04 10:05:54;;;;;;;3.90;0.90;;;;;;;20.93;26.33;100198.73;106967;1258;67612;-41
2023/06/04 10:08:22;;;;;;;1.60;0.80;;;;;;;20.87;26.84;100198.55;107059;1260;72676;-40
2023/06/04 10:10:52;;;;;;;1.30;0.70;;;;;;;20.87;27.42;100201.25;107094;1258;60319;-41
2023/06/04 10:13:19;;;;;;;1.50;0.90;;;;;;;20.95;26.73;100198.17;107034;1258;60401;-40
2023/06/04 10:15:47;;;;;;;2.20;1.00;;;;;;;21.00;26.34;100197.63;107098;1260;72905;-40
2023/06/04 10:18:15;;;;;;;1.80;0.80;;;;;;;20.98;26.13;100196.01;107044;1259;67723;-41
2023/06/04 10:20:43;;;;;;;1.70;0.80;;;;;;;20.98;26.18;100196.41;107115;1260;72867;-40
2023/06/04 10:23:11;;;;;;;2.60;1.00;;;;;;;21.03;26.38;100190.92;107043;1260;60460;-40
2023/06/04 10:25:38;;;;;;;1.40;0.70;;;;;;;21.13;26.98;100189.73;107066;1259;60418;-41
2023/06/04 10:28:06;;;;;;;2.20;0.70;;;;;;;21.33;27.02;100191.56;107068;1258;73895;-41
2023/06/04 10:30:34;;;;;;;3.30;0.80;;;;;;;21.56;26.34;100185.91;107087;1258;67595;-40
2023/06/04 10:33:02;;;;;;;3.20;1.10;;;;;;;21.66;26.05;100185.16;107071;1259;72717;-41
2023/06/04 10:35:33;;;;;;;1.90;0.90;;;;;;;21.71;25.70;100180.67;107066;1260;59572;-40
2023/06/04 10:38:11;;;;;;;2.60;0.90;;;;;;;21.85;26.22;100172.84;107088;1259;60540;-41
2023/06/04 10:40:39;;;;;;;2.20;0.90;;;;;;;22.17;26.24;100168.36;107114;1259;74005;-40
2023/06/04 10:43:08;;;;;;;2.00;1.00;;;;;;;22.40;25.42;100164.61;107073;1259;65991;-41
2023/06/04 10:45:36;;;;;;;1.80;0.80;;;;;;;22.44;25.07;100162.33;107020;1262;73179;-40
2023/06/04 10:48:05;;;;;;;1.70;1.00;;;;;;;22.38;24.33;100160.77;107110;1259;60401;-40
2023/06/04 10:50:33;;;;;;;1.60;0.90;;;;;;;22.38;24.44;100155.57;107119;1259;60313;-41
2023/06/04 10:53:05;;;;;;;1.70;0.90;;;;;;;22.59;24.98;100149.67;107114;1258;73476;-40
2023/06/04 10:55:34;;;;;;;2.20;0.90;;;;;;;22.96;24.73;100144.92;107125;1260;66810;-40
2023/06/04 10:58:03;;;;;;;1.10;0.70;;;;;;;23.38;24.30;100148.53;106905;1260;72698;-41
2023/06/04 11:00:37;;;;;;;1.80;0.80;;;;;;;23.70;24.27;100148.70;107064;1258;60453;-41
2023/06/04 11:03:08;;;;;;;1.40;0.80;;;;;;;23.99;23.43;100152.73;107103;1259;60488;-40
2023/06/04 11:05:37;;;;;;;1.60;0.60;;;;;;;24.00;22.69;100143.45;107117;1258;73873;-41
2023/06/04 11:08:05;;;;;;;2.10;1.10;;;;;;;23.87;23.45;100135.46;107131;1258;67535;-41
2023/06/04 11:10:38;;;;;;;1.10;0.80;;;;;;;24.01;23.12;100137.19;107066;1259;72681;-41
2023/06/04 11:13:06;;;;;;;2.60;0.80;;;;;;;24.25;22.90;100130.35;107081;1257;60306;-41
2023/06/04 11:15:48;;;;;;;2.40;0.80;;;;;;;24.37;21.67;100127.14;107095;1259;60421;-41
2023/06/04 11:18:20;;;;;;;1.10;0.60;;;;;;;24.25;22.50;100130.53;107107;1260;74025;-41
2023/06/04 11:20:49;;;;;;;1.60;0.80;;;;;;;24.26;22.47;100128.13;107129;1260;67902;-41
2023/06/04 11:23:17;;;;;;;1.20;0.70;;;;;;;24.52;22.12;100121.14;107116;1260;71421;-41
2023/06/04 11:25:45;;;;;;;1.40;0.70;;;;;;;24.82;21.85;100118.36;107128;1259;60547;-41